Time;durP1;ratioP1;P1;durP2;ratioP2;P2;SDS_P1;SDS_P2;PMS_P1;PMS_P2;Temp;Humidity;BMP_temperature;BMP_pressure;BME280_temperature;BME280_humidity;BME280_pressure;Samples;Min_cycle;Max_cycle;Signal;HPM_P1;HPM_P2
2022/03/18 00:00:21;;;;;;;;;;;6.30;99.90;;;;;;5035795;28;19909;-80
2022/03/18 00:02:47;;;;;;;;;;;6.30;99.90;;;;;;5035667;28;19973;-80
2022/03/18 00:05:13;;;;;;;;;;;6.30;99.90;;;;;;5041626;28;19913;-79
2022/03/18 00:07:40;;;;;;;;;;;6.20;1.00;;;;;;5038648;28;19978;-80
2022/03/18 00:10:07;;;;;;;;;;;6.20;1.00;;;;;;5035889;28;19963;-80
2022/03/18 00:12:33;;;;;;;;;;;6.20;1.00;;;;;;5035527;28;19917;-79
2022/03/18 00:14:59;;;;;;;;;;;6.10;1.00;;;;;;5034663;28;20023;-80
2022/03/18 00:17:25;;;;;;;;;;;6.10;1.00;;;;;;5022417;28;19945;-80
2022/03/18 00:19:51;;;;;;;;;;;6.10;1.00;;;;;;5016096;28;19921;-79
2022/03/18 00:22:16;;;;;;;;;;;6.10;1.00;;;;;;5031170;28;20070;-79
2022/03/18 00:24:42;;;;;;;;;;;6.00;1.00;;;;;;5034354;28;19917;-80
2022/03/18 00:27:08;;;;;;;;;;;6.00;1.00;;;;;;5034169;28;19914;-80
2022/03/18 00:29:34;;;;;;;;;;;5.90;1.00;;;;;;5033610;28;20624;-80
2022/03/18 00:31:59;;;;;;;;;;;5.90;1.00;;;;;;5034408;28;19913;-80
2022/03/18 00:34:25;;;;;;;;;;;5.90;1.00;;;;;;5028255;28;19917;-79
2022/03/18 00:36:52;;;;;;;;;;;5.90;1.00;;;;;;5033013;28;19917;-80
2022/03/18 00:39:17;;;;;;;;;;;5.80;1.00;;;;;;5033906;28;20300;-80
2022/03/18 00:41:43;;;;;;;;;;;5.80;1.00;;;;;;5034058;28;19914;-81
2022/03/18 00:44:08;;;;;;;;;;;5.80;1.00;;;;;;5029461;28;20550;-80
2022/03/18 00:46:34;;;;;;;;;;;5.80;1.00;;;;;;5035286;28;19920;-80
2022/03/18 00:54:28;;;;;;;;;;;5.70;1.00;;;;;;5038455;28;19988;-80
2022/03/18 00:56:54;;;;;;;;;;;5.60;1.00;;;;;;5039682;28;19913;-79
2022/03/18 00:59:19;;;;;;;;;;;5.60;1.00;;;;;;5038253;28;19919;-80
2022/03/18 01:01:45;;;;;;;;;;;5.60;20.20;;;;;;5038261;28;20035;-80
2022/03/18 01:04:10;;;;;;;;;;;5.60;1.00;;;;;;5035994;28;19925;-80
2022/03/18 01:06:36;;;;;;;;;;;5.60;1.00;;;;;;5031611;28;20004;-79
2022/03/18 01:09:05;;;;;;;;;;;5.50;1.00;;;;;;5032345;28;19914;-79
2022/03/18 01:11:31;;;;;;;;;;;5.50;1.00;;;;;;5036394;28;19947;-80
2022/03/18 01:13:57;;;;;;;;;;;5.50;20.60;;;;;;5032294;28;20392;-80
2022/03/18 01:16:22;;;;;;;;;;;5.50;18.80;;;;;;5039134;28;19913;-80
2022/03/18 01:18:48;;;;;;;;;;;5.50;10.60;;;;;;5033651;28;20413;-80
2022/03/18 01:21:13;;;;;;;;;;;5.50;9.70;;;;;;5034537;28;19920;-79
2022/03/18 01:23:39;;;;;;;;;;;5.40;10.20;;;;;;5024344;28;19928;-79
2022/03/18 01:26:04;;;;;;;;;;;5.40;16.30;;;;;;5036088;28;20344;-80
2022/03/18 01:28:30;;;;;;;;;;;5.40;12.20;;;;;;5028122;28;19917;-80
2022/03/18 01:30:56;;;;;;;;;;;5.40;10.90;;;;;;5035668;28;20439;-80
2022/03/18 01:33:21;;;;;;;;;;;5.40;7.10;;;;;;5036911;28;19947;-80
2022/03/18 01:35:47;;;;;;;;;;;5.30;8.70;;;;;;5039009;28;19909;-80
2022/03/18 01:38:12;;;;;;;;;;;5.30;24.40;;;;;;5038233;28;19919;-80
2022/03/18 01:40:38;;;;;;;;;;;5.30;33.20;;;;;;5029553;28;19963;-80
2022/03/18 01:43:10;;;;;;;;;;;5.20;54.50;;;;;;5037858;28;19913;-80
2022/03/18 01:45:35;;;;;;;;;;;5.20;91.60;;;;;;5038138;28;19917;-80
2022/03/18 01:48:01;;;;;;;;;;;5.20;99.90;;;;;;5028707;28;19916;-80
2022/03/18 01:50:27;;;;;;;;;;;5.20;99.90;;;;;;5028047;28;19995;-80
2022/03/18 01:52:52;;;;;;;;;;;5.20;99.90;;;;;;5039263;28;19959;-80
2022/03/18 01:55:19;;;;;;;;;;;5.10;99.90;;;;;;5034225;28;19974;-80
2022/03/18 01:57:45;;;;;;;;;;;5.10;99.90;;;;;;5026471;28;19992;-81
2022/03/18 02:00:10;;;;;;;;;;;5.10;99.90;;;;;;5037868;28;19991;-80
2022/03/18 02:02:36;;;;;;;;;;;5.10;99.90;;;;;;5033890;28;20486;-80
2022/03/18 02:05:03;;;;;;;;;;;5.00;99.90;;;;;;5044315;28;19960;-80
2022/03/18 02:07:29;;;;;;;;;;;5.00;99.90;;;;;;5035032;28;20422;-80
2022/03/18 02:09:55;;;;;;;;;;;5.00;99.90;;;;;;5034343;28;19948;-80
2022/03/18 02:12:20;;;;;;;;;;;5.00;99.90;;;;;;5027948;28;19913;-80
2022/03/18 02:14:46;;;;;;;;;;;5.00;99.90;;;;;;5028854;28;19917;-80
2022/03/18 02:17:14;;;;;;;;;;;5.00;99.90;;;;;;5033780;28;20043;-80
2022/03/18 02:19:40;;;;;;;;;;;4.90;99.90;;;;;;5038416;28;20346;-81
2022/03/18 02:22:13;;;;;;;;;;;4.90;99.90;;;;;;5040252;28;19920;-81
2022/03/18 02:24:43;;;;;;;;;;;4.90;99.90;;;;;;5034191;28;19924;-80
2022/03/18 02:27:08;;;;;;;;;;;4.90;99.90;;;;;;5033669;28;19909;-81
2022/03/18 02:29:34;;;;;;;;;;;4.90;99.90;;;;;;5036870;28;19936;-80
2022/03/18 02:32:00;;;;;;;;;;;4.80;99.90;;;;;;5033177;28;19913;-80
2022/03/18 02:34:26;;;;;;;;;;;4.80;99.90;;;;;;5037028;28;19909;-80
2022/03/18 02:36:52;;;;;;;;;;;4.80;99.90;;;;;;5027517;28;19936;-81
2022/03/18 02:39:17;;;;;;;;;;;4.70;99.90;;;;;;5030040;28;19920;-81
2022/03/18 02:41:43;;;;;;;;;;;4.70;99.90;;;;;;5032735;28;19928;-81
2022/03/18 02:44:08;;;;;;;;;;;4.70;99.90;;;;;;5033391;28;19949;-80
2022/03/18 02:46:34;;;;;;;;;;;4.60;99.90;;;;;;5033329;28;19988;-82
2022/03/18 02:49:00;;;;;;;;;;;4.60;99.90;;;;;;5038018;28;20301;-81
2022/03/18 02:51:26;;;;;;;;;;;4.60;99.90;;;;;;5034042;28;19920;-81
2022/03/18 02:53:51;;;;;;;;;;;4.60;99.90;;;;;;5021592;28;19914;-81
2022/03/18 02:56:17;;;;;;;;;;;4.60;99.90;;;;;;5053265;28;19955;-81
2022/03/18 02:58:43;;;;;;;;;;;4.60;99.90;;;;;;5038787;28;19909;-81
2022/03/18 03:01:08;;;;;;;;;;;4.60;99.90;;;;;;5036486;28;19920;-81
2022/03/18 03:03:34;;;;;;;;;;;4.50;99.90;;;;;;5038543;28;19909;-81
2022/03/18 03:08:44;;;;;;;;;;;4.50;1.00;;;;;;5037493;28;20381;-81
2022/03/18 03:11:09;;;;;;;;;;;4.40;99.90;;;;;;5036798;28;19914;-81
2022/03/18 03:13:35;;;;;;;;;;;4.40;99.90;;;;;;5031995;28;19909;-81
2022/03/18 03:16:02;;;;;;;;;;;4.40;95.30;;;;;;5039072;28;19957;-80
2022/03/18 03:18:28;;;;;;;;;;;4.40;99.90;;;;;;5040773;28;19917;-80
2022/03/18 03:20:54;;;;;;;;;;;4.40;99.90;;;;;;5036481;28;19988;-81
2022/03/18 03:23:21;;;;;;;;;;;4.40;99.90;;;;;;5038222;28;19967;-80
2022/03/18 03:25:46;;;;;;;;;;;4.40;99.90;;;;;;5036010;28;19921;-81
2022/03/18 03:28:12;;;;;;;;;;;4.40;99.90;;;;;;5036667;28;19910;-81
2022/03/18 03:30:37;;;;;;;;;;;4.40;99.90;;;;;;5035051;28;19988;-80
2022/03/18 03:33:03;;;;;;;;;;;4.30;30.00;;;;;;5051005;28;19909;-82
2022/03/18 03:35:28;;;;;;;;;;;4.30;1.00;;;;;;5036849;28;19913;-81
2022/03/18 03:37:54;;;;;;;;;;;4.30;1.00;;;;;;5033563;28;19920;-81
2022/03/18 03:40:19;;;;;;;;;;;4.30;1.00;;;;;;5037539;28;19909;-81
2022/03/18 03:42:45;;;;;;;;;;;4.30;22.60;;;;;;5035683;28;20396;-81
2022/03/18 03:45:12;;;;;;;;;;;4.30;23.80;;;;;;5033148;28;19944;-81
2022/03/18 03:47:38;;;;;;;;;;;4.30;1.00;;;;;;5021255;28;19909;-81
2022/03/18 03:50:04;;;;;;;;;;;4.20;1.00;;;;;;5033413;28;20488;-81
2022/03/18 03:52:29;;;;;;;;;;;4.20;1.00;;;;;;5029150;28;20398;-81
2022/03/18 03:54:55;;;;;;;;;;;4.20;1.00;;;;;;5030238;28;19914;-81
2022/03/18 03:57:20;;;;;;;;;;;4.20;1.00;;;;;;5028951;28;19913;-83
2022/03/18 03:59:46;;;;;;;;;;;4.20;1.00;;;;;;5036514;28;19940;-81
2022/03/18 04:02:12;;;;;;;;;;;4.10;1.00;;;;;;5036392;28;19967;-81
2022/03/18 04:04:37;;;;;;;;;;;4.10;1.00;;;;;;5034995;28;19924;-81
2022/03/18 04:07:03;;;;;;;;;;;4.00;1.00;;;;;;5032036;28;20415;-81
2022/03/18 04:09:28;;;;;;;;;;;4.00;1.00;;;;;;5034278;28;20387;-81
2022/03/18 04:11:54;;;;;;;;;;;4.00;1.00;;;;;;5039623;28;20369;-82
2022/03/18 04:14:20;;;;;;;;;;;3.90;1.00;;;;;;5028623;28;19913;-81
2022/03/18 04:16:45;;;;;;;;;;;3.90;1.00;;;;;;5033374;28;19925;-80
2022/03/18 04:19:11;;;;;;;;;;;3.90;1.00;;;;;;5035604;28;20004;-81
2022/03/18 04:21:37;;;;;;;;;;;3.80;99.90;;;;;;5025491;28;20020;-81
2022/03/18 04:24:02;;;;;;;;;;;3.80;99.90;;;;;;5041122;28;20446;-81
2022/03/18 04:26:28;;;;;;;;;;;3.80;99.90;;;;;;5039861;28;19963;-81
2022/03/18 04:28:53;;;;;;;;;;;3.80;13.80;;;;;;5033726;28;19940;-81
2022/03/18 04:31:19;;;;;;;;;;;3.70;1.00;;;;;;5037296;28;19952;-81
2022/03/18 04:33:44;;;;;;;;;;;3.70;8.00;;;;;;5033012;28;19913;-81
2022/03/18 04:36:10;;;;;;;;;;;3.70;99.90;;;;;;5039600;28;19940;-80
2022/03/18 04:38:35;;;;;;;;;;;3.70;99.90;;;;;;5039244;28;19958;-81
2022/03/18 04:41:01;;;;;;;;;;;3.70;1.00;;;;;;5038962;28;19909;-81
2022/03/18 04:43:26;;;;;;;;;;;3.70;99.90;;;;;;5039870;28;19916;-81
2022/03/18 04:45:52;;;;;;;;;;;3.60;1.00;;;;;;5035975;28;20377;-81
2022/03/18 04:48:17;;;;;;;;;;;3.60;1.00;;;;;;5039208;28;20011;-81
2022/03/18 04:50:43;;;;;;;;;;;3.60;99.90;;;;;;5024117;28;19913;-81
2022/03/18 04:53:08;;;;;;;;;;;3.60;56.70;;;;;;5029989;28;19923;-80
2022/03/18 04:55:34;;;;;;;;;;;3.60;1.00;;;;;;5040824;28;19916;-81
2022/03/18 04:57:59;;;;;;;;;;;3.50;1.00;;;;;;5038654;28;19909;-80
2022/03/18 05:00:25;;;;;;;;;;;3.50;99.90;;;;;;5038717;28;19913;-81
2022/03/18 05:02:51;;;;;;;;;;;3.50;99.90;;;;;;5039034;28;19913;-81
2022/03/18 05:05:19;;;;;;;;;;;3.50;1.00;;;;;;5030604;28;19920;-80
2022/03/18 05:07:51;;;;;;;;;;;3.40;1.00;;;;;;5031902;28;19913;-80
2022/03/18 05:10:17;;;;;;;;;;;3.40;1.00;;;;;;5040522;28;19909;-81
2022/03/18 05:12:43;;;;;;;;;;;3.30;1.00;;;;;;5037690;28;19959;-81
2022/03/18 05:15:09;;;;;;;;;;;3.20;1.00;;;;;;5038755;28;19909;-81
2022/03/18 05:17:34;;;;;;;;;;;3.20;68.10;;;;;;5039662;28;20349;-80
2022/03/18 05:20:00;;;;;;;;;;;3.20;99.90;;;;;;5038240;28;19943;-80
2022/03/18 05:22:26;;;;;;;;;;;3.10;99.90;;;;;;5037582;28;19971;-81
2022/03/18 05:24:52;;;;;;;;;;;3.10;99.90;;;;;;5034189;28;20390;-81
2022/03/18 05:27:18;;;;;;;;;;;3.10;99.90;;;;;;5038012;28;19936;-81
2022/03/18 05:29:44;;;;;;;;;;;3.10;99.90;;;;;;5027365;28;19909;-80
2022/03/18 05:32:10;;;;;;;;;;;3.10;99.90;;;;;;5036849;28;20358;-81
2022/03/18 05:34:36;;;;;;;;;;;3.10;99.90;;;;;;5040258;28;19959;-81
2022/03/18 05:37:02;;;;;;;;;;;3.10;99.90;;;;;;5020971;28;19920;-81
2022/03/18 05:39:27;;;;;;;;;;;3.00;1.50;;;;;;5039920;28;20009;-80
2022/03/18 05:41:53;;;;;;;;;;;3.00;99.90;;;;;;5039884;28;20285;-81
2022/03/18 05:44:18;;;;;;;;;;;3.00;99.90;;;;;;5038062;28;19917;-80
2022/03/18 05:46:44;;;;;;;;;;;3.00;99.90;;;;;;5031572;28;19913;-81
2022/03/18 05:49:09;;;;;;;;;;;3.00;1.00;;;;;;5037199;28;19914;-81
2022/03/18 05:51:35;;;;;;;;;;;3.00;32.20;;;;;;5038737;28;19913;-81
2022/03/18 05:54:01;;;;;;;;;;;3.00;99.90;;;;;;5038149;28;19936;-80
2022/03/18 05:59:10;;;;;;;;;;;3.20;1.00;;;;;;5037299;28;19961;-81
2022/03/18 06:01:37;;;;;;;;;;;3.20;1.00;;;;;;5034943;28;20174;-81
2022/03/18 06:04:06;;;;;;;;;;;3.20;1.00;;;;;;5035573;28;19921;-81
2022/03/18 06:06:32;;;;;;;;;;;3.30;1.00;;;;;;5031666;28;19913;-80
2022/03/18 06:11:53;;;;;;;;;;;3.50;99.90;;;;;;5039239;28;19920;-81
2022/03/18 06:14:20;;;;;;;;;;;3.60;1.00;;;;;;5030280;28;19913;-81
2022/03/18 06:16:49;;;;;;;;;;;3.80;1.00;;;;;;5037525;28;20285;-81
2022/03/18 06:19:16;;;;;;;;;;;4.10;99.90;;;;;;5037752;28;19943;-81
2022/03/18 06:21:41;;;;;;;;;;;5.00;99.90;;;;;;5036801;28;19915;-82
2022/03/18 06:24:09;;;;;;;;;;;7.60;99.90;;;;;;5037375;28;20012;-82
2022/03/18 06:26:35;;;;;;;;;;;10.60;1.00;;;;;;5038506;28;20421;-82
2022/03/18 06:29:01;;;;;;;;;;;13.30;1.00;;;;;;5044530;28;19972;-82
2022/03/18 06:31:26;;;;;;;;;;;15.60;99.90;;;;;;5058212;28;19952;-82
2022/03/18 06:33:52;;;;;;;;;;;17.80;99.90;;;;;;5037910;28;19913;-82
2022/03/18 06:36:18;;;;;;;;;;;19.50;99.90;;;;;;5054068;28;19909;-81
2022/03/18 06:38:43;;;;;;;;;;;21.00;99.90;;;;;;5035414;28;19909;-79
2022/03/18 06:41:09;;;;;;;;;;;22.40;99.90;;;;;;5035718;28;20301;-80
2022/03/18 06:43:34;;;;;;;;;;;23.80;99.90;;;;;;5035071;28;19909;-79
2022/03/18 06:46:02;;;;;;;;;;;25.10;99.90;;;;;;5036461;28;20369;-80
2022/03/18 06:48:27;;;;;;;;;;;26.30;99.90;;;;;;5037758;28;19909;-80
2022/03/18 06:50:53;;;;;;;;;;;27.30;99.90;;;;;;5036584;28;19909;-80
2022/03/18 06:53:18;;;;;;;;;;;28.30;99.90;;;;;;5037687;28;19909;-80
2022/03/18 06:55:44;;;;;;;;;;;29.10;99.90;;;;;;5031887;28;20325;-80
2022/03/18 06:58:09;;;;;;;;;;;29.90;99.90;;;;;;5034276;28;19928;-80
2022/03/18 07:00:41;;;;;;;;;;;30.50;99.90;;;;;;5035550;28;19920;-80
2022/03/18 07:03:06;;;;;;;;;;;31.30;99.90;;;;;;5036518;28;19920;-80
2022/03/18 07:05:32;;;;;;;;;;;31.90;99.90;;;;;;5037353;28;19913;-80
2022/03/18 07:07:58;;;;;;;;;;;32.50;99.90;;;;;;5035127;28;20255;-80
2022/03/18 07:10:24;;;;;;;;;;;33.00;99.90;;;;;;5035311;28;19916;-79
2022/03/18 07:12:49;;;;;;;;;;;33.50;99.90;;;;;;5027884;28;19937;-81
2022/03/18 07:15:15;;;;;;;;;;;33.90;99.90;;;;;;5026379;28;19956;-80
2022/03/18 07:17:58;;;;;;;;;;;34.40;99.90;;;;;;5034520;28;19917;-81
2022/03/18 07:20:24;;;;;;;;;;;34.90;99.90;;;;;;5033010;28;19924;-81
2022/03/18 07:23:01;;;;;;;;;;;35.10;99.90;;;;;;5029732;28;20424;-81
2022/03/18 07:25:27;;;;;;;;;;;34.80;99.90;;;;;;5045151;28;19917;-81
2022/03/18 07:27:52;;;;;;;;;;;34.80;99.90;;;;;;5033986;28;19960;-80
2022/03/18 07:30:18;;;;;;;;;;;34.90;99.90;;;;;;5033755;28;20447;-80
2022/03/18 07:32:43;;;;;;;;;;;34.40;99.90;;;;;;5029021;28;19909;-80
2022/03/18 07:35:10;;;;;;;;;;;33.80;99.90;;;;;;5032889;28;19913;-82
2022/03/18 07:37:36;;;;;;;;;;;33.50;99.90;;;;;;5035818;28;20144;-81
2022/03/18 07:40:01;;;;;;;;;;;34.20;99.90;;;;;;5033010;28;19913;-81
2022/03/18 07:42:27;;;;;;;;;;;34.20;99.90;;;;;;5032424;28;19913;-80
2022/03/18 07:44:52;;;;;;;;;;;34.90;99.90;;;;;;5033704;28;19917;-82
2022/03/18 07:47:18;;;;;;;;;;;35.80;99.90;;;;;;5033005;28;19921;-80
2022/03/18 07:49:43;;;;;;;;;;;36.50;99.90;;;;;;5034560;28;19912;-81
2022/03/18 07:52:09;;;;;;;;;;;37.10;99.90;;;;;;5033526;28;19921;-81
2022/03/18 07:54:34;;;;;;;;;;;37.60;99.90;;;;;;5028406;28;20358;-80
2022/03/18 07:57:00;;;;;;;;;;;37.80;99.90;;;;;;5033297;28;19913;-82
2022/03/18 07:59:25;;;;;;;;;;;37.90;99.90;;;;;;5035546;28;19913;-80
2022/03/18 08:01:50;;;;;;;;;;;37.20;99.90;;;;;;5037318;28;19916;-81
2022/03/18 08:04:16;;;;;;;;;;;36.50;99.90;;;;;;5024084;28;20024;-80
2022/03/18 08:07:02;;;;;;;;;;;36.70;99.90;;;;;;5136154;27;19916;-79
2022/03/18 08:09:28;;;;;;;;;;;36.70;99.90;;;;;;5156070;27;19911;-79
2022/03/18 08:11:54;;;;;;;;;;;36.50;99.90;;;;;;5153014;27;19907;-79
2022/03/18 08:14:19;;;;;;;;;;;36.60;99.90;;;;;;5140944;27;20283;-79
2022/03/18 08:16:45;;;;;;;;;;;36.80;99.90;;;;;;5135085;27;19911;-80
2022/03/18 08:19:10;;;;;;;;;;;37.50;99.90;;;;;;5146177;27;19954;-80
2022/03/18 08:21:35;;;;;;;;;;;37.70;99.90;;;;;;5140980;27;19907;-80
2022/03/18 08:24:02;;;;;;;;;;;37.90;99.90;;;;;;5135246;27;19911;-79
2022/03/18 08:26:27;;;;;;;;;;;38.30;99.90;;;;;;5134401;27;19916;-79
2022/03/18 08:28:53;;;;;;;;;;;38.50;99.90;;;;;;5141815;27;20237;-79
2022/03/18 08:31:18;;;;;;;;;;;37.80;99.90;;;;;;5144571;27;19918;-80
2022/03/18 08:33:43;;;;;;;;;;;37.60;99.90;;;;;;5134424;28;19922;-80
2022/03/18 08:36:09;;;;;;;;;;;36.30;99.90;;;;;;5135700;28;19946;-79
2022/03/18 08:38:34;;;;;;;;;;;36.00;99.90;;;;;;5134505;28;19908;-80
2022/03/18 08:41:00;;;;;;;;;;;36.00;99.90;;;;;;5148762;27;19960;-80
2022/03/18 08:43:25;;;;;;;;;;;35.60;99.90;;;;;;5133341;28;19908;-79
2022/03/18 08:45:51;;;;;;;;;;;35.40;99.90;;;;;;5132178;28;19919;-79
2022/03/18 08:48:16;;;;;;;;;;;34.60;99.90;;;;;;5135969;27;20392;-80
2022/03/18 08:50:42;;;;;;;;;;;34.20;99.90;;;;;;5136762;27;19908;-80
2022/03/18 08:53:10;;;;;;;;;;;34.30;99.90;;;;;;5142933;27;19964;-80
2022/03/18 08:55:36;;;;;;;;;;;34.80;99.90;;;;;;5144220;27;19914;-79
2022/03/18 08:58:01;;;;;;;;;;;34.70;99.90;;;;;;5144723;27;19986;-80
2022/03/18 09:00:27;;;;;;;;;;;34.10;99.90;;;;;;5144187;27;20291;-80
2022/03/18 09:02:53;;;;;;;;;;;34.80;99.90;;;;;;5129346;27;19912;-80
2022/03/18 09:05:18;;;;;;;;;;;34.50;99.90;;;;;;5133330;27;19920;-80
2022/03/18 09:07:44;;;;;;;;;;;34.10;99.90;;;;;;5142663;27;20730;-79
2022/03/18 09:10:12;;;;;;;;;;;34.60;99.90;;;;;;5134714;27;19908;-80
2022/03/18 09:12:48;;;;;;;;;;;35.00;99.90;;;;;;5136086;27;19912;-80
2022/03/18 09:15:13;;;;;;;;;;;35.10;99.90;;;;;;5141455;27;19907;-79
2022/03/18 09:17:39;;;;;;;;;;;34.80;99.90;;;;;;5124197;27;19915;-80
2022/03/18 09:20:06;;;;;;;;;;;35.30;99.90;;;;;;5112690;27;19957;-79
2022/03/18 09:22:31;;;;;;;;;;;34.80;99.90;;;;;;5121507;27;19911;-79
2022/03/18 09:24:57;;;;;;;;;;;34.90;99.90;;;;;;5137209;27;19937;-79
2022/03/18 09:27:22;;;;;;;;;;;35.90;99.90;;;;;;5134180;27;19915;-79
2022/03/18 09:29:48;;;;;;;;;;;35.70;99.90;;;;;;5117920;28;20413;-79
2022/03/18 09:32:15;;;;;;;;;;;34.60;99.90;;;;;;5121021;27;19948;-79
2022/03/18 09:34:41;;;;;;;;;;;34.60;99.90;;;;;;5118459;28;19915;-79
2022/03/18 09:37:06;;;;;;;;;;;35.20;99.90;;;;;;5116293;28;19912;-78
2022/03/18 09:39:32;;;;;;;;;;;34.90;99.90;;;;;;5117936;28;20356;-78
2022/03/18 09:41:57;;;;;;;;;;;34.30;99.90;;;;;;5117243;28;19953;-80
2022/03/18 09:44:23;;;;;;;;;;;34.60;99.90;;;;;;5114271;28;19970;-80
2022/03/18 09:46:49;;;;;;;;;;;34.40;99.90;;;;;;5109878;27;19923;-79
2022/03/18 09:49:15;;;;;;;;;;;35.10;99.90;;;;;;5119548;28;19943;-79
2022/03/18 09:51:42;;;;;;;;;;;34.90;99.90;;;;;;5118910;28;19912;-79
2022/03/18 09:54:08;;;;;;;;;;;35.30;99.90;;;;;;5117966;28;20371;-80
2022/03/18 09:56:34;;;;;;;;;;;34.90;99.90;;;;;;5120231;28;19908;-79
2022/03/18 09:58:59;;;;;;;;;;;34.90;99.90;;;;;;5109351;28;19909;-80
2022/03/18 10:01:25;;;;;;;;;;;33.40;99.90;;;;;;5108099;28;19912;-78
2022/03/18 10:03:50;;;;;;;;;;;33.00;99.90;;;;;;5102479;28;19919;-79
2022/03/18 10:06:16;;;;;;;;;;;32.60;99.90;;;;;;5118118;28;19916;-79
2022/03/18 10:08:44;;;;;;;;;;;33.10;99.90;;;;;;5107430;28;20380;-78
2022/03/18 10:11:13;;;;;;;;;;;33.80;99.90;;;;;;5097257;28;19908;-78
2022/03/18 10:13:52;;;;;;;;;;;34.10;99.90;;;;;;5096759;28;20302;-79
2022/03/18 10:16:29;;;;;;;;;;;33.30;99.90;;;;;;5098845;28;19912;-79
2022/03/18 10:18:54;;;;;;;;;;;33.00;99.90;;;;;;5118997;28;19912;-79
2022/03/18 10:21:19;;;;;;;;;;;32.60;99.90;;;;;;5119226;28;19915;-78
2022/03/18 10:23:45;;;;;;;;;;;32.50;99.90;;;;;;5104703;28;19980;-78
2022/03/18 10:26:13;;;;;;;;;;;32.30;99.90;;;;;;5099388;28;19923;-78
2022/03/18 10:28:43;;;;;;;;;;;31.60;99.90;;;;;;5127956;27;20387;-79
2022/03/18 10:31:10;;;;;;;;;;;31.10;99.90;;;;;;5133331;27;19977;-78
2022/03/18 10:39:25;;;;;;;;;;;31.60;99.90;;;;;;5119062;28;20033;-79
2022/03/18 10:41:50;;;;;;;;;;;32.40;99.90;;;;;;5119196;28;19908;-79
2022/03/18 10:44:17;;;;;;;;;;;33.10;99.90;;;;;;5119117;28;20367;-79
2022/03/18 10:46:43;;;;;;;;;;;33.00;99.90;;;;;;5124035;28;19951;-78
2022/03/18 10:49:10;;;;;;;;;;;32.60;99.90;;;;;;5120717;27;19916;-79
2022/03/18 10:51:37;;;;;;;;;;;32.90;99.90;;;;;;5125912;27;19948;-79
2022/03/18 10:54:03;;;;;;;;;;;33.50;99.90;;;;;;5117693;28;19934;-79
2022/03/18 10:56:29;;;;;;;;;;;32.60;99.90;;;;;;5118570;28;19915;-79
2022/03/18 10:58:55;;;;;;;;;;;33.40;99.90;;;;;;5126193;27;19911;-80
2022/03/18 11:01:22;;;;;;;;;;;34.30;99.90;;;;;;5119449;27;19941;-79
2022/03/18 11:03:47;;;;;;;;;;;33.30;99.90;;;;;;5119363;28;19912;-79
2022/03/18 11:06:16;;;;;;;;;;;32.80;99.90;;;;;;5118269;28;19922;-79
2022/03/18 11:08:45;;;;;;;;;;;32.80;99.90;;;;;;5118709;28;19908;-78
2022/03/18 11:11:15;;;;;;;;;;;32.60;99.90;;;;;;5126583;27;19911;-79
2022/03/18 11:13:50;;;;;;;;;;;31.70;99.90;;;;;;5138424;27;19923;-78
2022/03/18 11:16:20;;;;;;;;;;;32.10;99.90;;;;;;5111472;27;19971;-79
2022/03/18 11:18:46;;;;;;;;;;;32.00;99.90;;;;;;5098068;28;19909;-79
2022/03/18 11:21:12;;;;;;;;;;;31.70;99.90;;;;;;5098352;28;20006;-79
2022/03/18 11:23:39;;;;;;;;;;;31.80;99.90;;;;;;5105044;28;19965;-79
2022/03/18 11:26:05;;;;;;;;;;;31.10;99.90;;;;;;5112782;28;19922;-79
2022/03/18 11:28:31;;;;;;;;;;;30.80;99.90;;;;;;5097284;28;19908;-79
2022/03/18 11:31:00;;;;;;;;;;;31.10;99.90;;;;;;5106562;28;20389;-78
2022/03/18 11:33:26;;;;;;;;;;;30.10;99.90;;;;;;5118279;27;19918;-79
2022/03/18 11:35:54;;;;;;;;;;;30.40;99.90;;;;;;5134559;27;19998;-79
2022/03/18 11:38:28;;;;;;;;;;;30.60;99.90;;;;;;5129745;27;19911;-79
2022/03/18 11:40:58;;;;;;;;;;;30.30;99.90;;;;;;5116875;28;19908;-79
2022/03/18 11:43:39;;;;;;;;;;;30.60;99.90;;;;;;5116761;28;20372;-79
2022/03/18 11:46:14;;;;;;;;;;;30.60;99.90;;;;;;5097703;28;19912;-80
2022/03/18 11:48:44;;;;;;;;;;;31.10;99.90;;;;;;5100904;28;19915;-79
2022/03/18 11:51:31;;;;;;;;;;;30.80;99.90;;;;;;5119289;27;19908;-78
2022/03/18 11:54:00;;;;;;;;;;;30.50;99.90;;;;;;5119514;27;20007;-79
2022/03/18 11:56:49;;;;;;;;;;;30.40;99.90;;;;;;5095790;28;19908;-79
2022/03/18 11:59:31;;;;;;;;;;;29.50;99.90;;;;;;5099212;28;19933;-79
2022/03/18 12:02:00;;;;;;;;;;;29.20;99.90;;;;;;5132187;27;19908;-79
2022/03/18 12:04:34;;;;;;;;;;;29.50;99.90;;;;;;5117257;28;19954;-80
2022/03/18 12:07:19;;;;;;;;;;;29.30;99.90;;;;;;5113787;28;20326;-79
2022/03/18 12:09:53;;;;;;;;;;;29.40;99.90;;;;;;5116336;28;19958;-79
2022/03/18 12:12:20;;;;;;;;;;;29.60;99.90;;;;;;5116998;28;19912;-80
2022/03/18 12:14:46;;;;;;;;;;;28.90;99.90;;;;;;5117883;28;19908;-79
2022/03/18 12:17:12;;;;;;;;;;;29.40;99.90;;;;;;5117756;28;19998;-80
2022/03/18 12:19:37;;;;;;;;;;;29.10;99.90;;;;;;5114694;28;20451;-80
2022/03/18 12:22:03;;;;;;;;;;;28.80;99.90;;;;;;5126307;28;19943;-81
2022/03/18 12:24:32;;;;;;;;;;;29.00;99.90;;;;;;5137366;27;20402;-80
2022/03/18 12:27:00;;;;;;;;;;;29.10;99.90;;;;;;5107946;28;19930;-81
2022/03/18 12:29:26;;;;;;;;;;;29.20;99.90;;;;;;5138367;27;19907;-80
2022/03/18 12:32:05;;;;;;;;;;;28.70;99.90;;;;;;5134413;27;19912;-80
2022/03/18 12:34:31;;;;;;;;;;;28.70;99.90;;;;;;5137651;27;19998;-80
2022/03/18 12:37:11;;;;;;;;;;;28.30;99.90;;;;;;5116179;27;19946;-80
2022/03/18 12:39:37;;;;;;;;;;;28.40;99.90;;;;;;5120283;27;19915;-80
2022/03/18 12:42:11;;;;;;;;;;;28.10;99.90;;;;;;5130240;27;20364;-80
2022/03/18 12:44:36;;;;;;;;;;;28.00;99.90;;;;;;5118015;28;19918;-79
2022/03/18 12:47:20;;;;;;;;;;;27.10;99.90;;;;;;5131402;28;19912;-80
2022/03/18 12:49:53;;;;;;;;;;;27.10;99.90;;;;;;5136772;27;19919;-81
2022/03/18 12:52:19;;;;;;;;;;;27.10;99.90;;;;;;5139732;27;19968;-81
2022/03/18 12:55:04;;;;;;;;;;;27.50;99.90;;;;;;5122797;27;20341;-80
2022/03/18 12:57:34;;;;;;;;;;;27.40;99.90;;;;;;5111605;28;20363;-80
2022/03/18 12:59:59;;;;;;;;;;;26.70;99.90;;;;;;5127814;27;19912;-79
2022/03/18 13:02:25;;;;;;;;;;;26.80;99.90;;;;;;5118210;28;20002;-80
2022/03/18 13:04:57;;;;;;;;;;;26.40;99.90;;;;;;5120488;27;19949;-79
2022/03/18 13:07:27;;;;;;;;;;;26.90;99.90;;;;;;5118083;28;19954;-79
2022/03/18 13:09:53;;;;;;;;;;;26.70;99.90;;;;;;5117755;28;19918;-79
2022/03/18 13:12:22;;;;;;;;;;;26.90;99.90;;;;;;5117474;28;19938;-79
2022/03/18 13:14:53;;;;;;;;;;;26.90;99.90;;;;;;5097518;28;19911;-79
2022/03/18 13:17:27;;;;;;;;;;;26.90;99.90;;;;;;5097986;28;20410;-79
2022/03/18 13:19:55;;;;;;;;;;;26.70;99.90;;;;;;5097882;28;19915;-79
2022/03/18 13:22:21;;;;;;;;;;;26.50;99.90;;;;;;5110207;28;19915;-79
2022/03/18 13:24:47;;;;;;;;;;;26.30;99.90;;;;;;5118991;28;20276;-79
2022/03/18 13:27:13;;;;;;;;;;;26.10;99.90;;;;;;5118333;28;19919;-79
2022/03/18 13:35:10;;;;;;;;;;;25.20;99.90;;;;;;5125783;27;19984;-80
2022/03/18 13:37:36;;;;;;;;;;;25.50;99.90;;;;;;5118255;28;19912;-80
2022/03/18 13:40:08;;;;;;;;;;;25.50;99.90;;;;;;5116744;28;19914;-79
2022/03/18 13:42:34;;;;;;;;;;;25.30;99.90;;;;;;5116647;28;19980;-80
2022/03/18 13:44:59;;;;;;;;;;;24.90;99.90;;;;;;5126532;27;19920;-80
2022/03/18 13:47:27;;;;;;;;;;;24.90;99.90;;;;;;5117126;28;19911;-79
2022/03/18 13:49:56;;;;;;;;;;;24.40;99.90;;;;;;5126669;27;19908;-79
2022/03/18 13:52:33;;;;;;;;;;;24.30;99.90;;;;;;5129183;27;19918;-79
2022/03/18 13:54:59;;;;;;;;;;;24.00;99.90;;;;;;5123511;27;19911;-79
2022/03/18 13:57:25;;;;;;;;;;;23.60;99.90;;;;;;5128073;27;20420;-79
2022/03/18 13:59:50;;;;;;;;;;;23.70;99.90;;;;;;5124708;27;19935;-79
2022/03/18 14:02:23;;;;;;;;;;;23.90;99.90;;;;;;5133255;27;19914;-80
2022/03/18 14:04:54;;;;;;;;;;;23.60;99.90;;;;;;5123961;27;19915;-80
2022/03/18 14:07:20;;;;;;;;;;;24.00;99.90;;;;;;5129854;27;19916;-80
2022/03/18 14:10:15;;;;;;;;;;;23.90;99.90;;;;;;5128471;27;19915;-80
2022/03/18 14:12:56;;;;;;;;;;;23.90;99.90;;;;;;5110757;27;20528;-79
2022/03/18 14:15:21;;;;;;;;;;;23.00;99.90;;;;;;5111439;27;19912;-79
2022/03/18 14:18:00;;;;;;;;;;;22.80;99.90;;;;;;5128015;27;20295;-79
2022/03/18 14:20:26;;;;;;;;;;;22.70;99.90;;;;;;5119421;27;19911;-79
2022/03/18 14:22:53;;;;;;;;;;;22.70;99.90;;;;;;5125150;27;19998;-79
2022/03/18 14:25:18;;;;;;;;;;;22.70;99.90;;;;;;5119753;27;19919;-79
2022/03/18 14:27:45;;;;;;;;;;;22.60;99.90;;;;;;5112897;27;19916;-79
2022/03/18 14:30:11;;;;;;;;;;;22.60;99.90;;;;;;5124866;27;19907;-79
2022/03/18 14:32:37;;;;;;;;;;;22.60;99.90;;;;;;5123293;27;19911;-79
2022/03/18 14:35:03;;;;;;;;;;;22.60;99.90;;;;;;5132684;27;19979;-80
2022/03/18 14:37:32;;;;;;;;;;;22.60;99.90;;;;;;5116733;27;19951;-79
2022/03/18 14:39:58;;;;;;;;;;;22.40;99.90;;;;;;5119942;27;19908;-79
2022/03/18 14:42:24;;;;;;;;;;;22.20;99.90;;;;;;5122932;27;19998;-79
2022/03/18 14:44:50;;;;;;;;;;;22.10;99.90;;;;;;5102189;27;19916;-79
2022/03/18 14:47:15;;;;;;;;;;;22.10;99.90;;;;;;5114436;28;20332;-79
2022/03/18 14:49:41;;;;;;;;;;;22.20;99.90;;;;;;5116041;28;19914;-78